createdAt,value
2024-04-07T22:23:27.605Z,100980.25
2024-04-07T22:25:55.243Z,100983.75
2024-04-07T22:28:21.971Z,100971.41
2024-04-07T22:30:48.491Z,100973.22
2024-04-07T22:33:14.995Z,100971.41
2024-04-07T22:35:41.498Z,100967.00
2024-04-07T22:38:08.015Z,100967.94
2024-04-07T22:40:34.554Z,100957.38
2024-04-07T22:43:01.062Z,100958.34
2024-04-07T22:45:27.593Z,100962.75
2024-04-07T22:47:54.238Z,100969.81
2024-04-07T22:50:20.823Z,100975.09
2024-04-07T22:52:47.313Z,100977.66
2024-04-07T22:55:13.915Z,100976.72
2024-04-07T22:57:40.562Z,100972.31
2024-04-07T23:00:07.427Z,100984.69
2024-04-07T23:02:34.317Z,100986.50
2024-04-07T23:05:00.887Z,100981.19
2024-04-07T23:07:27.855Z,100977.66
2024-04-07T23:09:54.455Z,100963.50
2024-04-07T23:12:21.177Z,100979.38
2024-04-07T23:14:50.975Z,100965.25
2024-04-07T23:17:17.930Z,100960.84
2024-04-07T23:19:44.451Z,100956.41
2024-04-07T23:22:11.174Z,100962.59
2024-04-07T23:24:37.681Z,100980.28
2024-04-07T23:27:04.219Z,100973.19
2024-04-07T23:29:30.818Z,100977.63
2024-04-07T23:31:57.332Z,100976.72
2024-04-07T23:34:23.882Z,100980.19
2024-04-07T23:36:50.430Z,100972.91
2024-04-07T23:39:16.957Z,100962.81
2024-04-07T23:41:43.459Z,100985.59
2024-04-07T23:44:09.965Z,100987.34
2024-04-07T23:46:36.501Z,100983.81
2024-04-07T23:49:03.020Z,100981.19
2024-04-07T23:51:29.583Z,100991.06
2024-04-07T23:53:56.116Z,100996.44
2024-04-07T23:56:22.639Z,100997.38
2024-04-07T23:58:51.237Z,100985.94
